Aérodrome :
LOGIN :

S'inscrire | Disclaimer

   EN    FR    IT 

 










Légende :    VFR   VFR Marginal   IFR   IFR Intensif   IFR Très Intensif
Visi : 
Plafond : 
>= 8 km
>= 3000ft
5 à 8 km
1000 à 3000 ft
1500m à 5 km
500 à 1000 ft
800 à 1500m
200 à 500 ft
< 800m
< 200 ft
Symboles :   Orages  Brouillard  Fortes neiges  Fortes précipitations  Vent > 20 kt
SIGMETs :   Divers  Orages  Givrage  Turbulence  Onde Orograph.  Cendres Volcan.






- Altitude de l'aérodrome : 1247 ft
- Code IATA : PRG


LKPR - Praha Ruzyne

DERNIER METAR :
  • 112300Z 13004KT 9999 BKN034 M02/M05 Q1007 NOSIG

METARs EXPIRÉS :
  • 112230Z 14004KT 9999 BKN035 M01/M06 Q1007 NOSIG
  • 112200Z 14005KT 9999 BKN038 M02/M06 Q1007 NOSIG
  • 112130Z 14005KT CAVOK M02/M06 Q1008 NOSIG
  • 112100Z 12005KT CAVOK M03/M05 Q1008 NOSIG
  • 112030Z 12005KT CAVOK M03/M05 Q1008 NOSIG

TAF TAF LKPR
Valide du 11 à 18h jusqu'au 13 à 00h UTC


111700Z 1118/1300 10006KT CAVOK
BECMG 1201/1203 9999 OVC022
TEMPO 1209/1218 5000 -SN BR OVC014
PROB30
TEMPO 1209/1214 2000 SN BR BKN007
BECMG 1218/1220 20006KT 9999 SCT022
PROB30
TEMPO 1220/1300 5000 SHSN BKN009



MET'MAP, la Météo Aéronautique d'un coup d'oeil ! - Copyright ORBIFLY Décembre 2007 - Disclaimer

ORBIFLY MET'MAP TEAM :

Programmation & Développement : Alexandra Zaïnal
Sur une idée originale de : Baudouin d'Aumeries
Assistance à la programmation : Marc-Olivier Méhu
Soutien technique & logistique : Manuel Goepfert

Contact : metmap@orbifly.com




SOURCES & CREDITS :

   NOAA